UAL1158 KLAX-PHNL
Flight info
| Callsign | UAL1158 |
|---|---|
| Flight time | 5h 18m |
| Altitude | 36000 |
| Route | SUMMR2 DINTY DUETS R576 DENNS MAGGI3 |
| Aircraft | B772/H-VGDW/C |
Departure
| Time | 2026-04-20 16:32 |
|---|---|
| Airport | Los Angeles International Airport (KLAX) |
Arrival
| Time | 2026-04-20 21:50 |
|---|---|
| Airport | Daniel K. Inouye International Airport (PHNL) |
| Time | Latitude | Longitude | Altitude | Speed | Heading |
|---|---|---|---|---|---|
| 2026-04-20 15:58 | 33.94027 | -118.39993 | 140 ft | 0 kts | 33° |
| 2026-04-20 16:15 | 33.94013 | -118.40005 | 140 ft | 4 kts | 36° |
| 2026-04-20 16:15 | 33.93991 | -118.40025 | 140 ft | 4 kts | 43° |
| 2026-04-20 16:15 | 33.93972 | -118.40048 | 140 ft | 4 kts | 51° |
| 2026-04-20 16:16 | 33.93957 | -118.40074 | 140 ft | 4 kts | 63° |
| 2026-04-20 16:16 | 33.93948 | -118.40102 | 140 ft | 3 kts | 82° |
| 2026-04-20 16:16 | 33.93948 | -118.40106 | 140 ft | 0 kts | 83° |
| 2026-04-20 16:25 | 33.93948 | -118.40105 | 140 ft | 0 kts | 83° |
| 2026-04-20 16:25 | 33.93949 | -118.40093 | 140 ft | 4 kts | 86° |
| 2026-04-20 16:25 | 33.93927 | -118.40064 | 140 ft | 5 kts | 170° |
| 2026-04-20 16:26 | 33.93891 | -118.40052 | 140 ft | 5 kts | 147° |
| 2026-04-20 16:26 | 33.93879 | -118.40000 | 140 ft | 10 kts | 88° |
| 2026-04-20 16:26 | 33.93887 | -118.39909 | 140 ft | 11 kts | 83° |
| 2026-04-20 16:26 | 33.93896 | -118.39822 | 140 ft | 10 kts | 83° |
| 2026-04-20 16:27 | 33.93904 | -118.39741 | 140 ft | 10 kts | 83° |
| 2026-04-20 16:27 | 33.93912 | -118.39664 | 140 ft | 9 kts | 83° |
| 2026-04-20 16:27 | 33.93919 | -118.39590 | 140 ft | 9 kts | 83° |
| 2026-04-20 16:27 | 33.93929 | -118.39493 | 140 ft | 15 kts | 83° |
| 2026-04-20 16:28 | 33.93943 | -118.39362 | 140 ft | 16 kts | 83° |
| 2026-04-20 16:28 | 33.93956 | -118.39236 | 140 ft | 15 kts | 83° |
| 2026-04-20 16:28 | 33.93968 | -118.39118 | 140 ft | 14 kts | 83° |
| 2026-04-20 16:28 | 33.93980 | -118.39001 | 140 ft | 16 kts | 83° |
| 2026-04-20 16:29 | 33.93995 | -118.38852 | 140 ft | 19 kts | 83° |
| 2026-04-20 16:29 | 33.94011 | -118.38700 | 140 ft | 18 kts | 83° |
| 2026-04-20 16:29 | 33.94026 | -118.38556 | 140 ft | 17 kts | 83° |
| 2026-04-20 16:29 | 33.94040 | -118.38420 | 140 ft | 16 kts | 83° |
| 2026-04-20 16:30 | 33.94053 | -118.38291 | 140 ft | 15 kts | 83° |
| 2026-04-20 16:30 | 33.94065 | -118.38171 | 140 ft | 14 kts | 83° |
| 2026-04-20 16:30 | 33.94070 | -118.38116 | 140 ft | 4 kts | 87° |
| 2026-04-20 16:30 | 33.94064 | -118.38075 | 140 ft | 7 kts | 118° |
| 2026-04-20 16:31 | 33.94016 | -118.38029 | 140 ft | 7 kts | 175° |
| 2026-04-20 16:31 | 33.93981 | -118.38061 | 140 ft | 7 kts | 254° |
| 2026-04-20 16:31 | 33.93970 | -118.38166 | 140 ft | 28 kts | 263° |
| 2026-04-20 16:31 | 33.93917 | -118.38671 | 140 ft | 92 kts | 263° |
| 2026-04-20 16:32 | 33.93813 | -118.39679 | 140 ft | 149 kts | 263° |
| 2026-04-20 16:32 | 33.93667 | -118.41091 | 359 ft | 180 kts | 263° |
| 2026-04-20 16:32 | 33.93502 | -118.42600 | 1126 ft | 184 kts | 263° |
| 2026-04-20 16:32 | 33.93348 | -118.44130 | 1994 ft | 183 kts | 263° |
| 2026-04-20 16:33 | 33.93201 | -118.45634 | 2410 ft | 187 kts | 263° |
| 2026-04-20 16:33 | 33.93057 | -118.47263 | 2581 ft | 204 kts | 264° |
| 2026-04-20 16:33 | 33.92915 | -118.49037 | 2694 ft | 223 kts | 264° |
| 2026-04-20 16:33 | 33.92760 | -118.50973 | 2850 ft | 241 kts | 264° |
| 2026-04-20 16:34 | 33.92592 | -118.53043 | 3183 ft | 253 kts | 264° |
| 2026-04-20 16:34 | 33.92412 | -118.55209 | 3671 ft | 260 kts | 264° |
| 2026-04-20 16:34 | 33.92230 | -118.57398 | 4210 ft | 264 kts | 264° |
| 2026-04-20 16:34 | 33.92044 | -118.59616 | 4781 ft | 267 kts | 264° |
| 2026-04-20 16:35 | 33.91857 | -118.61857 | 5338 ft | 271 kts | 264° |
| 2026-04-20 16:35 | 33.91746 | -118.63356 | 5736 ft | 272 kts | 265° |
| 2026-04-20 16:35 | 33.91685 | -118.65087 | 6167 ft | 274 kts | 268° |
| 2026-04-20 16:35 | 33.91681 | -118.67393 | 6766 ft | 276 kts | 270° |
| 2026-04-20 16:36 | 33.91717 | -118.69720 | 7350 ft | 278 kts | 270° |
| 2026-04-20 16:36 | 33.91740 | -118.72058 | 7934 ft | 281 kts | 269° |
| 2026-04-20 16:36 | 33.91741 | -118.74385 | 8513 ft | 283 kts | 268° |
| 2026-04-20 16:36 | 33.91621 | -118.76751 | 9072 ft | 285 kts | 264° |
| 2026-04-20 16:37 | 33.91430 | -118.79130 | 9659 ft | 286 kts | 263° |
| 2026-04-20 16:37 | 33.91213 | -118.81514 | 10248 ft | 289 kts | 262° |
| 2026-04-20 16:37 | 33.90973 | -118.83969 | 10600 ft | 302 kts | 261° |
| 2026-04-20 16:37 | 33.90716 | -118.86547 | 10869 ft | 320 kts | 261° |
| 2026-04-20 16:38 | 33.90443 | -118.89280 | 11136 ft | 338 kts | 261° |
| 2026-04-20 16:38 | 33.90157 | -118.92154 | 11530 ft | 353 kts | 261° |
| 2026-04-20 16:38 | 33.89859 | -118.95135 | 12126 ft | 363 kts | 261° |
| 2026-04-20 16:38 | 33.89554 | -118.98173 | 12918 ft | 368 kts | 261° |
| 2026-04-20 16:39 | 33.89244 | -119.01264 | 13696 ft | 373 kts | 261° |
| 2026-04-20 16:39 | 33.88931 | -119.04381 | 14495 ft | 377 kts | 261° |
| 2026-04-20 16:39 | 33.88616 | -119.07521 | 15316 ft | 379 kts | 260° |
| 2026-04-20 16:39 | 33.88296 | -119.10688 | 16060 ft | 383 kts | 260° |
| 2026-04-20 16:40 | 33.87973 | -119.13882 | 16777 ft | 386 kts | 260° |
| 2026-04-20 16:40 | 33.87646 | -119.17103 | 17481 ft | 389 kts | 260° |
| 2026-04-20 16:40 | 33.87316 | -119.20350 | 18139 ft | 393 kts | 260° |
| 2026-04-20 16:40 | 33.86983 | -119.23623 | 18807 ft | 395 kts | 260° |
| 2026-04-20 16:41 | 33.86646 | -119.26918 | 19417 ft | 398 kts | 260° |
| 2026-04-20 16:41 | 33.86308 | -119.30232 | 20044 ft | 401 kts | 260° |
| 2026-04-20 16:41 | 33.85964 | -119.33575 | 20621 ft | 404 kts | 260° |
| 2026-04-20 16:41 | 33.85621 | -119.36900 | 21170 ft | 407 kts | 260° |
| 2026-04-20 16:42 | 33.85271 | -119.40294 | 21716 ft | 410 kts | 260° |
| 2026-04-20 16:42 | 33.84917 | -119.43707 | 22275 ft | 413 kts | 260° |
| 2026-04-20 16:42 | 33.84677 | -119.46026 | 22644 ft | 414 kts | 260° |
| 2026-04-20 16:42 | 33.84200 | -119.50601 | 23308 ft | 419 kts | 260° |
| 2026-04-20 16:43 | 33.83957 | -119.52948 | 23672 ft | 420 kts | 261° |
| 2026-04-20 16:43 | 33.83591 | -119.56446 | 24207 ft | 422 kts | 260° |
| 2026-04-20 16:43 | 33.83100 | -119.61112 | 24809 ft | 427 kts | 260° |
| 2026-04-20 16:43 | 33.82848 | -119.63506 | 25123 ft | 428 kts | 260° |
| 2026-04-20 16:44 | 33.82472 | -119.67073 | 25559 ft | 432 kts | 260° |
| 2026-04-20 16:44 | 33.82091 | -119.70672 | 25990 ft | 434 kts | 260° |
| 2026-04-20 16:44 | 33.81707 | -119.74294 | 26406 ft | 437 kts | 260° |
| 2026-04-20 16:44 | 33.81320 | -119.77936 | 26757 ft | 441 kts | 260° |
| 2026-04-20 16:45 | 33.80934 | -119.81550 | 27142 ft | 443 kts | 260° |
| 2026-04-20 16:45 | 33.80539 | -119.85245 | 27506 ft | 446 kts | 260° |
| 2026-04-20 16:45 | 33.80140 | -119.88960 | 27827 ft | 449 kts | 260° |
| 2026-04-20 16:45 | 33.79738 | -119.92700 | 28176 ft | 451 kts | 260° |
| 2026-04-20 16:46 | 33.79333 | -119.96449 | 28506 ft | 453 kts | 260° |
| 2026-04-20 16:46 | 33.78926 | -120.00217 | 28815 ft | 456 kts | 260° |
| 2026-04-20 16:46 | 33.78516 | -120.04015 | 29100 ft | 458 kts | 260° |
| 2026-04-20 16:46 | 33.78100 | -120.07825 | 29395 ft | 460 kts | 260° |
| 2026-04-20 16:47 | 33.77688 | -120.11602 | 29649 ft | 463 kts | 260° |
| 2026-04-20 16:47 | 33.77266 | -120.15451 | 29891 ft | 465 kts | 260° |
| 2026-04-20 16:47 | 33.76842 | -120.19312 | 30150 ft | 467 kts | 260° |
| 2026-04-20 16:47 | 33.76414 | -120.23195 | 30369 ft | 469 kts | 260° |
| 2026-04-20 16:48 | 33.75984 | -120.27086 | 30621 ft | 470 kts | 260° |
| 2026-04-20 16:48 | 33.75553 | -120.30971 | 30945 ft | 469 kts | 261° |
| 2026-04-20 16:48 | 33.75122 | -120.34855 | 31249 ft | 469 kts | 261° |
| 2026-04-20 16:48 | 33.74689 | -120.38740 | 31564 ft | 468 kts | 261° |
| 2026-04-20 16:49 | 33.74256 | -120.42620 | 31832 ft | 468 kts | 261° |
| 2026-04-20 16:49 | 33.73827 | -120.46451 | 32101 ft | 468 kts | 261° |
| 2026-04-20 16:49 | 33.73393 | -120.50313 | 32394 ft | 468 kts | 261° |
| 2026-04-20 16:49 | 33.72956 | -120.54184 | 32706 ft | 467 kts | 261° |
| 2026-04-20 16:50 | 33.72519 | -120.58053 | 32984 ft | 466 kts | 261° |
| 2026-04-20 16:50 | 33.72082 | -120.61908 | 33259 ft | 466 kts | 261° |
| 2026-04-20 16:50 | 33.71644 | -120.65765 | 33543 ft | 465 kts | 261° |
| 2026-04-20 16:50 | 33.71205 | -120.69613 | 33815 ft | 465 kts | 261° |
| 2026-04-20 16:51 | 33.70765 | -120.73461 | 34115 ft | 464 kts | 261° |
| 2026-04-20 16:51 | 33.70325 | -120.77299 | 34377 ft | 464 kts | 261° |
| 2026-04-20 16:51 | 33.69885 | -120.81132 | 34649 ft | 463 kts | 261° |
| 2026-04-20 16:51 | 33.69443 | -120.84964 | 34896 ft | 463 kts | 261° |
| 2026-04-20 16:52 | 33.69002 | -120.88781 | 35197 ft | 461 kts | 261° |
| 2026-04-20 16:52 | 33.68560 | -120.92594 | 35438 ft | 461 kts | 261° |
| 2026-04-20 16:52 | 33.68118 | -120.96398 | 35668 ft | 460 kts | 260° |
| 2026-04-20 16:52 | 33.67674 | -121.00205 | 35900 ft | 460 kts | 260° |
| 2026-04-20 16:53 | 33.67231 | -121.03996 | 36054 ft | 460 kts | 260° |
| 2026-04-20 16:53 | 33.66786 | -121.07796 | 36076 ft | 460 kts | 260° |
| 2026-04-20 16:53 | 33.65888 | -121.15426 | 36065 ft | 464 kts | 260° |
| 2026-04-20 16:54 | 33.64976 | -121.23140 | 36063 ft | 469 kts | 260° |
| 2026-04-20 16:54 | 33.64051 | -121.30920 | 36062 ft | 473 kts | 260° |
| 2026-04-20 16:55 | 33.63112 | -121.38766 | 36062 ft | 475 kts | 260° |
| 2026-04-20 16:55 | 33.62176 | -121.46553 | 36061 ft | 474 kts | 260° |
| 2026-04-20 16:56 | 33.61225 | -121.54420 | 36061 ft | 473 kts | 260° |
| 2026-04-20 16:56 | 33.60282 | -121.62184 | 36060 ft | 473 kts | 259° |
| 2026-04-20 16:57 | 33.59327 | -121.70003 | 36060 ft | 473 kts | 259° |
| 2026-04-20 16:57 | 33.58366 | -121.77827 | 36061 ft | 474 kts | 259° |
| 2026-04-20 16:58 | 33.57401 | -121.85653 | 36058 ft | 474 kts | 259° |
| 2026-04-20 16:58 | 33.56431 | -121.93461 | 36059 ft | 473 kts | 259° |
| 2026-04-20 16:59 | 33.55458 | -122.01263 | 36058 ft | 473 kts | 259° |
| 2026-04-20 16:59 | 33.54487 | -122.09008 | 36058 ft | 473 kts | 259° |
| 2026-04-20 17:00 | 33.53016 | -122.20708 | 36057 ft | 473 kts | 259° |
| 2026-04-20 17:01 | 33.52097 | -122.28501 | 36056 ft | 473 kts | 259° |
| 2026-04-20 17:01 | 33.51113 | -122.36289 | 36055 ft | 472 kts | 259° |
| 2026-04-20 17:02 | 33.50114 | -122.44082 | 36054 ft | 472 kts | 259° |
| 2026-04-20 17:02 | 33.49124 | -122.51810 | 36055 ft | 472 kts | 259° |
| 2026-04-20 17:03 | 33.48113 | -122.59574 | 36059 ft | 471 kts | 257° |
| 2026-04-20 17:03 | 33.46662 | -122.67223 | 36063 ft | 470 kts | 253° |
| 2026-04-20 17:04 | 33.44984 | -122.74775 | 36064 ft | 469 kts | 253° |
| 2026-04-20 17:04 | 33.43348 | -122.82340 | 36064 ft | 468 kts | 253° |
| 2026-04-20 17:05 | 33.41746 | -122.89903 | 36063 ft | 469 kts | 254° |
| 2026-04-20 17:05 | 33.40152 | -122.97463 | 36063 ft | 469 kts | 254° |
| 2026-04-20 17:06 | 33.38608 | -123.04999 | 36063 ft | 468 kts | 254° |
| 2026-04-20 17:06 | 33.37044 | -123.12573 | 36062 ft | 468 kts | 254° |
| 2026-04-20 17:07 | 33.35466 | -123.20117 | 36062 ft | 468 kts | 254° |
| 2026-04-20 17:07 | 33.33878 | -123.27664 | 36060 ft | 468 kts | 254° |
| 2026-04-20 17:08 | 33.32281 | -123.35222 | 36059 ft | 468 kts | 253° |
| 2026-04-20 17:08 | 33.30690 | -123.42719 | 36059 ft | 467 kts | 253° |
| 2026-04-20 17:09 | 33.29090 | -123.50238 | 36058 ft | 467 kts | 253° |
| 2026-04-20 17:09 | 33.27484 | -123.57766 | 36055 ft | 467 kts | 253° |
| 2026-04-20 17:10 | 33.25872 | -123.65293 | 36054 ft | 467 kts | 253° |
| 2026-04-20 17:10 | 33.24259 | -123.72808 | 36051 ft | 467 kts | 253° |
| 2026-04-20 17:11 | 33.22648 | -123.80277 | 36060 ft | 467 kts | 253° |
| 2026-04-20 17:11 | 33.21022 | -123.87796 | 36060 ft | 467 kts | 253° |
| 2026-04-20 17:12 | 33.19393 | -123.95309 | 36061 ft | 466 kts | 253° |
| 2026-04-20 17:12 | 33.17763 | -124.02806 | 36056 ft | 466 kts | 253° |
| 2026-04-20 17:13 | 33.16141 | -124.10235 | 36058 ft | 465 kts | 253° |
| 2026-04-20 17:13 | 33.14525 | -124.17699 | 36062 ft | 465 kts | 253° |
| 2026-04-20 17:14 | 33.12897 | -124.25177 | 36052 ft | 465 kts | 253° |
| 2026-04-20 17:14 | 33.11246 | -124.32630 | 36051 ft | 465 kts | 253° |
| 2026-04-20 17:15 | 33.09595 | -124.40054 | 36050 ft | 465 kts | 253° |
| 2026-04-20 17:15 | 33.07938 | -124.47502 | 36053 ft | 464 kts | 253° |
| 2026-04-20 17:16 | 33.06277 | -124.54952 | 36056 ft | 464 kts | 253° |
| 2026-04-20 17:16 | 33.04599 | -124.62404 | 36057 ft | 464 kts | 253° |
| 2026-04-20 17:17 | 33.02928 | -124.69786 | 36058 ft | 464 kts | 253° |
| 2026-04-20 17:17 | 33.01244 | -124.77198 | 36058 ft | 463 kts | 253° |
| 2026-04-20 17:18 | 32.99557 | -124.84598 | 36058 ft | 463 kts | 253° |
| 2026-04-20 17:18 | 32.97864 | -124.92012 | 36057 ft | 463 kts | 253° |
| 2026-04-20 17:19 | 32.96216 | -124.99444 | 36058 ft | 463 kts | 253° |
| 2026-04-20 17:19 | 32.94558 | -125.06820 | 36059 ft | 463 kts | 253° |
| 2026-04-20 17:20 | 32.92875 | -125.14232 | 36063 ft | 462 kts | 253° |
| 2026-04-20 17:20 | 32.91189 | -125.21610 | 36063 ft | 462 kts | 253° |
| 2026-04-20 17:21 | 32.89506 | -125.28946 | 36034 ft | 462 kts | 252° |
| 2026-04-20 17:21 | 32.87809 | -125.36315 | 36030 ft | 462 kts | 252° |
| 2026-04-20 17:22 | 32.86105 | -125.43695 | 36030 ft | 462 kts | 252° |
| 2026-04-20 17:22 | 32.84400 | -125.51056 | 36030 ft | 462 kts | 252° |
| 2026-04-20 17:23 | 32.82690 | -125.58418 | 36032 ft | 462 kts | 252° |
| 2026-04-20 17:23 | 32.80982 | -125.65750 | 36005 ft | 462 kts | 252° |
| 2026-04-20 17:24 | 32.79260 | -125.73117 | 36004 ft | 462 kts | 252° |
| 2026-04-20 17:24 | 32.77536 | -125.80476 | 36008 ft | 462 kts | 252° |
| 2026-04-20 17:25 | 32.75807 | -125.87833 | 36010 ft | 462 kts | 252° |
| 2026-04-20 17:25 | 32.74074 | -125.95187 | 36010 ft | 462 kts | 252° |
| 2026-04-20 17:26 | 32.72337 | -126.02537 | 36010 ft | 461 kts | 252° |
| 2026-04-20 17:26 | 32.70603 | -126.09850 | 36010 ft | 459 kts | 252° |
| 2026-04-20 17:27 | 32.68877 | -126.17111 | 36010 ft | 459 kts | 252° |
| 2026-04-20 17:27 | 32.67138 | -126.24407 | 36010 ft | 459 kts | 252° |
| 2026-04-20 17:28 | 32.65392 | -126.31713 | 36010 ft | 459 kts | 252° |
| 2026-04-20 17:28 | 32.63643 | -126.39008 | 36010 ft | 459 kts | 252° |
| 2026-04-20 17:29 | 32.61901 | -126.46263 | 36010 ft | 459 kts | 252° |
| 2026-04-20 17:29 | 32.60145 | -126.53546 | 36010 ft | 458 kts | 252° |
| 2026-04-20 17:30 | 32.58685 | -126.59583 | 36010 ft | 458 kts | 252° |
| 2026-04-20 17:30 | 32.56923 | -126.66855 | 36010 ft | 458 kts | 252° |
| 2026-04-20 17:31 | 32.55161 | -126.74109 | 36010 ft | 457 kts | 252° |
| 2026-04-20 17:31 | 32.53406 | -126.81310 | 36010 ft | 457 kts | 252° |
| 2026-04-20 17:32 | 32.51641 | -126.88535 | 36010 ft | 456 kts | 252° |
| 2026-04-20 17:32 | 32.49870 | -126.95766 | 36010 ft | 456 kts | 252° |
| 2026-04-20 17:33 | 32.48097 | -127.02984 | 36010 ft | 455 kts | 252° |
| 2026-04-20 17:33 | 32.46325 | -127.10183 | 36008 ft | 455 kts | 252° |
| 2026-04-20 17:34 | 32.44547 | -127.17381 | 36010 ft | 454 kts | 252° |
| 2026-04-20 17:34 | 32.42770 | -127.24558 | 36010 ft | 454 kts | 252° |
| 2026-04-20 17:35 | 32.41002 | -127.31678 | 36010 ft | 454 kts | 252° |
| 2026-04-20 17:35 | 32.39219 | -127.38845 | 36009 ft | 454 kts | 252° |
| 2026-04-20 17:36 | 32.37429 | -127.46013 | 36012 ft | 454 kts | 252° |
| 2026-04-20 17:36 | 32.35636 | -127.53175 | 36012 ft | 453 kts | 252° |
| 2026-04-20 17:37 | 32.33844 | -127.60316 | 36012 ft | 453 kts | 252° |
| 2026-04-20 17:37 | 32.32047 | -127.67466 | 36008 ft | 454 kts | 252° |
| 2026-04-20 17:38 | 32.30241 | -127.74619 | 36012 ft | 454 kts | 252° |
| 2026-04-20 17:38 | 32.28430 | -127.81780 | 36012 ft | 454 kts | 252° |
| 2026-04-20 17:39 | 32.26631 | -127.88873 | 36012 ft | 454 kts | 252° |
| 2026-04-20 17:39 | 32.24813 | -127.96021 | 36012 ft | 454 kts | 252° |
| 2026-04-20 17:40 | 32.22989 | -128.03177 | 36012 ft | 454 kts | 252° |
| 2026-04-20 17:40 | 32.21161 | -128.10329 | 36012 ft | 454 kts | 252° |
| 2026-04-20 17:41 | 32.19332 | -128.17467 | 36017 ft | 454 kts | 252° |
| 2026-04-20 17:41 | 32.17511 | -128.24556 | 36025 ft | 453 kts | 252° |
| 2026-04-20 17:42 | 32.15678 | -128.31672 | 36026 ft | 453 kts | 252° |
| 2026-04-20 17:42 | 32.13844 | -128.38776 | 36025 ft | 452 kts | 252° |
| 2026-04-20 17:43 | 32.12009 | -128.45863 | 36025 ft | 451 kts | 252° |
| 2026-04-20 17:43 | 32.10176 | -128.52927 | 36026 ft | 450 kts | 251° |
| 2026-04-20 17:44 | 32.08343 | -128.59970 | 36026 ft | 449 kts | 251° |
| 2026-04-20 17:44 | 32.06508 | -128.67000 | 36026 ft | 448 kts | 251° |
| 2026-04-20 17:45 | 32.04671 | -128.74026 | 36026 ft | 447 kts | 251° |
| 2026-04-20 17:45 | 32.02838 | -128.81017 | 36026 ft | 446 kts | 251° |
| 2026-04-20 17:46 | 32.01017 | -128.87945 | 36025 ft | 444 kts | 251° |
| 2026-04-20 17:46 | 31.99181 | -128.94911 | 36025 ft | 445 kts | 252° |
| 2026-04-20 17:47 | 31.97335 | -129.01901 | 36027 ft | 448 kts | 252° |
| 2026-04-20 17:47 | 31.95489 | -129.08871 | 36026 ft | 447 kts | 252° |
| 2026-04-20 17:48 | 31.93637 | -129.15850 | 36026 ft | 445 kts | 252° |
| 2026-04-20 17:48 | 31.91789 | -129.22795 | 36027 ft | 444 kts | 252° |
| 2026-04-20 17:49 | 31.89942 | -129.29721 | 36027 ft | 443 kts | 252° |
| 2026-04-20 17:49 | 31.88095 | -129.36626 | 36027 ft | 442 kts | 252° |
| 2026-04-20 17:50 | 31.86258 | -129.43481 | 36027 ft | 441 kts | 252° |
| 2026-04-20 17:50 | 31.84411 | -129.50355 | 36027 ft | 440 kts | 252° |
| 2026-04-20 17:51 | 31.82565 | -129.57207 | 36027 ft | 439 kts | 252° |
| 2026-04-20 17:51 | 31.80720 | -129.64042 | 36028 ft | 438 kts | 252° |
| 2026-04-20 17:52 | 31.78872 | -129.70871 | 36028 ft | 438 kts | 252° |
| 2026-04-20 17:52 | 31.77026 | -129.77675 | 36016 ft | 437 kts | 252° |
| 2026-04-20 17:53 | 31.75187 | -129.84442 | 36003 ft | 436 kts | 252° |
| 2026-04-20 17:53 | 31.73325 | -129.91274 | 36003 ft | 437 kts | 252° |
| 2026-04-20 17:54 | 31.71477 | -129.98038 | 36002 ft | 437 kts | 252° |
| 2026-04-20 17:54 | 31.69618 | -130.04827 | 36003 ft | 436 kts | 252° |
| 2026-04-20 17:55 | 31.67757 | -130.11606 | 36003 ft | 436 kts | 252° |
| 2026-04-20 17:55 | 31.65906 | -130.18334 | 36003 ft | 436 kts | 252° |
| 2026-04-20 17:56 | 31.64036 | -130.25118 | 36004 ft | 436 kts | 252° |
| 2026-04-20 17:56 | 31.62163 | -130.31896 | 36004 ft | 437 kts | 252° |
| 2026-04-20 17:57 | 31.60285 | -130.38675 | 36004 ft | 437 kts | 252° |
| 2026-04-20 17:57 | 31.58403 | -130.45454 | 36004 ft | 438 kts | 252° |
| 2026-04-20 17:58 | 31.56513 | -130.52245 | 36004 ft | 438 kts | 252° |
| 2026-04-20 17:58 | 31.54619 | -130.59035 | 36004 ft | 438 kts | 252° |
| 2026-04-20 17:59 | 31.52733 | -130.65783 | 36004 ft | 439 kts | 252° |
| 2026-04-20 17:59 | 31.50827 | -130.72583 | 36006 ft | 439 kts | 252° |
| 2026-04-20 18:00 | 31.48919 | -130.79378 | 36006 ft | 439 kts | 252° |
| 2026-04-20 18:00 | 31.47007 | -130.86172 | 36006 ft | 439 kts | 252° |
| 2026-04-20 18:01 | 31.45088 | -130.92972 | 36006 ft | 439 kts | 252° |
| 2026-04-20 18:01 | 31.43169 | -130.99757 | 36006 ft | 438 kts | 252° |
| 2026-04-20 18:02 | 31.41265 | -131.06478 | 36006 ft | 438 kts | 252° |
| 2026-04-20 18:02 | 31.39339 | -131.13257 | 36006 ft | 438 kts | 252° |
| 2026-04-20 18:03 | 31.37414 | -131.20018 | 36006 ft | 438 kts | 252° |
| 2026-04-20 18:03 | 31.35489 | -131.26765 | 36013 ft | 437 kts | 252° |
| 2026-04-20 18:04 | 31.33554 | -131.33533 | 36014 ft | 437 kts | 252° |
| 2026-04-20 18:04 | 31.31622 | -131.40271 | 36014 ft | 436 kts | 252° |
| 2026-04-20 18:05 | 31.28730 | -131.50334 | 36015 ft | 437 kts | 252° |
| 2026-04-20 18:05 | 31.26790 | -131.57068 | 36015 ft | 436 kts | 252° |
| 2026-04-20 18:06 | 31.24852 | -131.63779 | 36015 ft | 436 kts | 252° |
| 2026-04-20 18:06 | 31.22910 | -131.70486 | 36015 ft | 436 kts | 252° |
| 2026-04-20 18:07 | 31.20963 | -131.77198 | 36015 ft | 436 kts | 252° |
| 2026-04-20 18:07 | 31.19051 | -131.83868 | 36018 ft | 436 kts | 252° |
| 2026-04-20 18:08 | 31.17098 | -131.90569 | 36018 ft | 437 kts | 252° |
| 2026-04-20 18:08 | 31.15127 | -131.97289 | 36019 ft | 437 kts | 252° |
| 2026-04-20 18:09 | 31.13153 | -132.04000 | 36019 ft | 436 kts | 253° |
| 2026-04-20 18:09 | 31.11185 | -132.10693 | 36020 ft | 436 kts | 253° |
| 2026-04-20 18:10 | 31.09228 | -132.17338 | 36020 ft | 436 kts | 253° |
| 2026-04-20 18:10 | 31.07247 | -132.24019 | 36020 ft | 436 kts | 253° |
| 2026-04-20 18:11 | 31.05253 | -132.30719 | 36020 ft | 436 kts | 253° |
| 2026-04-20 18:11 | 31.03258 | -132.37406 | 36020 ft | 436 kts | 253° |
| 2026-04-20 18:12 | 31.01257 | -132.44096 | 36021 ft | 437 kts | 252° |
| 2026-04-20 18:12 | 30.99253 | -132.50787 | 36018 ft | 438 kts | 253° |
| 2026-04-20 18:13 | 30.97290 | -132.57458 | 36022 ft | 437 kts | 253° |
| 2026-04-20 18:13 | 30.95309 | -132.64154 | 36021 ft | 436 kts | 255° |
| 2026-04-20 18:14 | 30.93323 | -132.70828 | 36022 ft | 436 kts | 255° |
| 2026-04-20 18:14 | 30.91327 | -132.77499 | 36022 ft | 436 kts | 255° |
| 2026-04-20 18:15 | 30.89323 | -132.84173 | 36024 ft | 437 kts | 255° |
| 2026-04-20 18:15 | 30.87327 | -132.90806 | 36021 ft | 437 kts | 255° |
| 2026-04-20 18:16 | 30.85310 | -132.97489 | 36023 ft | 437 kts | 255° |
| 2026-04-20 18:16 | 30.83290 | -133.04167 | 36023 ft | 437 kts | 255° |
| 2026-04-20 18:17 | 30.81282 | -133.10791 | 36022 ft | 437 kts | 255° |
| 2026-04-20 18:17 | 30.79258 | -133.17458 | 36020 ft | 437 kts | 255° |
| 2026-04-20 18:18 | 30.77229 | -133.24123 | 36021 ft | 437 kts | 255° |
| 2026-04-20 18:18 | 30.75535 | -133.29675 | 36022 ft | 437 kts | 255° |
| 2026-04-20 18:19 | 30.73497 | -133.36343 | 36022 ft | 437 kts | 255° |
| 2026-04-20 18:19 | 30.71451 | -133.43024 | 36022 ft | 438 kts | 255° |
| 2026-04-20 18:20 | 30.69414 | -133.49660 | 36022 ft | 439 kts | 255° |
| 2026-04-20 18:20 | 30.67363 | -133.56331 | 36023 ft | 438 kts | 255° |
| 2026-04-20 18:21 | 30.65303 | -133.63014 | 36023 ft | 439 kts | 255° |
| 2026-04-20 18:21 | 30.63238 | -133.69702 | 36024 ft | 440 kts | 255° |
| 2026-04-20 18:22 | 30.61185 | -133.76337 | 36024 ft | 440 kts | 255° |
| 2026-04-20 18:22 | 30.59113 | -133.83020 | 36024 ft | 440 kts | 255° |
| 2026-04-20 18:23 | 30.57037 | -133.89701 | 36024 ft | 440 kts | 255° |
| 2026-04-20 18:23 | 30.54954 | -133.96391 | 36024 ft | 441 kts | 255° |
| 2026-04-20 18:24 | 30.52865 | -134.03085 | 36026 ft | 441 kts | 255° |
| 2026-04-20 18:24 | 30.50772 | -134.09781 | 36026 ft | 442 kts | 255° |
| 2026-04-20 18:25 | 30.48671 | -134.16487 | 36006 ft | 442 kts | 255° |
| 2026-04-20 18:25 | 30.46571 | -134.23180 | 36002 ft | 442 kts | 255° |
| 2026-04-20 18:26 | 30.44465 | -134.29870 | 36005 ft | 442 kts | 255° |
| 2026-04-20 18:26 | 30.42368 | -134.36522 | 36006 ft | 442 kts | 255° |
| 2026-04-20 18:27 | 30.40256 | -134.43207 | 36006 ft | 442 kts | 255° |
| 2026-04-20 18:27 | 30.38138 | -134.49900 | 36007 ft | 442 kts | 255° |
| 2026-04-20 18:28 | 30.36018 | -134.56584 | 36007 ft | 441 kts | 255° |
| 2026-04-20 18:28 | 30.33896 | -134.63260 | 36007 ft | 441 kts | 255° |
| 2026-04-20 18:29 | 30.31775 | -134.69920 | 36007 ft | 441 kts | 255° |
| 2026-04-20 18:29 | 30.29659 | -134.76550 | 36007 ft | 441 kts | 255° |
| 2026-04-20 18:30 | 30.27531 | -134.83205 | 36008 ft | 441 kts | 255° |
| 2026-04-20 18:30 | 30.25398 | -134.89863 | 36008 ft | 441 kts | 255° |
| 2026-04-20 18:31 | 30.23260 | -134.96522 | 36009 ft | 441 kts | 255° |
| 2026-04-20 18:31 | 30.21121 | -135.03171 | 36009 ft | 441 kts | 255° |
| 2026-04-20 18:32 | 30.18980 | -135.09815 | 36009 ft | 441 kts | 255° |
| 2026-04-20 18:32 | 30.16846 | -135.16420 | 36009 ft | 441 kts | 255° |
| 2026-04-20 18:33 | 30.14694 | -135.23070 | 36009 ft | 441 kts | 255° |
| 2026-04-20 18:33 | 30.12538 | -135.29719 | 36010 ft | 442 kts | 254° |
| 2026-04-20 18:34 | 30.10375 | -135.36377 | 36008 ft | 442 kts | 254° |
| 2026-04-20 18:34 | 30.08226 | -135.42977 | 36003 ft | 442 kts | 254° |
| 2026-04-20 18:35 | 30.06058 | -135.49623 | 36000 ft | 442 kts | 254° |
| 2026-04-20 18:35 | 30.03887 | -135.56266 | 36000 ft | 442 kts | 254° |
| 2026-04-20 18:36 | 30.01712 | -135.62909 | 36001 ft | 442 kts | 254° |
| 2026-04-20 18:36 | 29.99529 | -135.69561 | 36001 ft | 443 kts | 254° |
| 2026-04-20 18:37 | 29.97345 | -135.76202 | 36000 ft | 443 kts | 254° |
| 2026-04-20 18:37 | 29.95171 | -135.82801 | 36000 ft | 443 kts | 254° |
| 2026-04-20 18:38 | 29.92976 | -135.89453 | 36000 ft | 443 kts | 254° |
| 2026-04-20 18:38 | 29.90781 | -135.96088 | 36000 ft | 443 kts | 254° |
| 2026-04-20 18:39 | 29.88583 | -136.02723 | 36000 ft | 443 kts | 254° |
| 2026-04-20 18:39 | 29.86379 | -136.09362 | 36001 ft | 443 kts | 254° |
| 2026-04-20 18:40 | 29.84173 | -136.15995 | 36000 ft | 443 kts | 254° |
| 2026-04-20 18:40 | 29.81963 | -136.22624 | 36001 ft | 443 kts | 253° |
| 2026-04-20 18:41 | 29.79763 | -136.29213 | 36001 ft | 443 kts | 253° |
| 2026-04-20 18:41 | 29.77546 | -136.35838 | 36002 ft | 443 kts | 253° |
| 2026-04-20 18:42 | 29.75323 | -136.42468 | 36002 ft | 443 kts | 253° |
| 2026-04-20 18:42 | 29.73096 | -136.49099 | 36001 ft | 444 kts | 253° |
| 2026-04-20 18:43 | 29.70877 | -136.55691 | 36002 ft | 444 kts | 253° |
| 2026-04-20 18:43 | 29.68644 | -136.62315 | 36008 ft | 444 kts | 253° |
| 2026-04-20 18:44 | 29.66408 | -136.68932 | 36009 ft | 444 kts | 253° |
| 2026-04-20 18:44 | 29.64184 | -136.75502 | 36009 ft | 443 kts | 253° |
| 2026-04-20 18:45 | 29.61946 | -136.82103 | 36010 ft | 443 kts | 253° |
| 2026-04-20 18:45 | 29.59700 | -136.88713 | 36010 ft | 443 kts | 253° |
| 2026-04-20 18:46 | 29.57454 | -136.95311 | 36010 ft | 443 kts | 253° |
| 2026-04-20 18:46 | 29.55202 | -137.01912 | 36010 ft | 443 kts | 253° |
| 2026-04-20 18:47 | 29.52969 | -137.08450 | 36011 ft | 443 kts | 253° |
| 2026-04-20 18:47 | 29.50712 | -137.15040 | 36011 ft | 443 kts | 253° |
| 2026-04-20 18:48 | 29.48453 | -137.21628 | 36011 ft | 443 kts | 253° |
| 2026-04-20 18:48 | 29.46207 | -137.28163 | 36011 ft | 443 kts | 253° |
| 2026-04-20 18:49 | 29.43944 | -137.34738 | 36011 ft | 443 kts | 253° |
| 2026-04-20 18:49 | 29.41670 | -137.41330 | 36012 ft | 443 kts | 253° |
| 2026-04-20 18:50 | 29.39399 | -137.47902 | 36012 ft | 443 kts | 253° |
| 2026-04-20 18:50 | 29.37137 | -137.54436 | 36013 ft | 444 kts | 253° |
| 2026-04-20 18:51 | 29.34853 | -137.61021 | 36013 ft | 444 kts | 253° |
| 2026-04-20 18:51 | 29.32565 | -137.67605 | 36013 ft | 444 kts | 253° |
| 2026-04-20 18:52 | 29.30276 | -137.74179 | 36013 ft | 444 kts | 253° |
| 2026-04-20 18:52 | 29.27984 | -137.80750 | 36015 ft | 444 kts | 253° |
| 2026-04-20 18:53 | 29.25702 | -137.87282 | 36013 ft | 444 kts | 253° |
| 2026-04-20 18:53 | 29.23399 | -137.93861 | 36016 ft | 444 kts | 253° |
| 2026-04-20 18:54 | 29.21099 | -138.00419 | 36015 ft | 444 kts | 252° |
| 2026-04-20 18:54 | 29.18806 | -138.06945 | 36015 ft | 444 kts | 252° |
| 2026-04-20 18:55 | 29.16499 | -138.13497 | 36015 ft | 444 kts | 252° |
| 2026-04-20 18:55 | 29.14186 | -138.20054 | 36014 ft | 444 kts | 252° |
| 2026-04-20 18:56 | 29.11861 | -138.26637 | 36015 ft | 445 kts | 252° |
| 2026-04-20 18:56 | 29.09540 | -138.33194 | 36016 ft | 444 kts | 252° |
| 2026-04-20 18:57 | 29.07232 | -138.39703 | 36016 ft | 444 kts | 252° |
| 2026-04-20 18:57 | 29.04908 | -138.46245 | 36015 ft | 444 kts | 252° |
| 2026-04-20 18:58 | 29.02580 | -138.52788 | 36016 ft | 444 kts | 252° |
| 2026-04-20 18:58 | 29.00250 | -138.59322 | 36017 ft | 444 kts | 252° |
| 2026-04-20 18:59 | 28.97915 | -138.65861 | 36017 ft | 444 kts | 252° |
| 2026-04-20 18:59 | 28.95587 | -138.72365 | 36018 ft | 445 kts | 252° |
| 2026-04-20 19:00 | 28.93241 | -138.78911 | 36018 ft | 445 kts | 252° |
| 2026-04-20 19:00 | 28.90891 | -138.85455 | 36018 ft | 445 kts | 252° |
| 2026-04-20 19:01 | 28.88540 | -138.91991 | 36018 ft | 445 kts | 252° |
| 2026-04-20 19:01 | 28.86183 | -138.98534 | 36019 ft | 445 kts | 252° |
| 2026-04-20 19:02 | 28.83820 | -139.05077 | 36019 ft | 445 kts | 252° |
| 2026-04-20 19:02 | 28.81489 | -139.11568 | 36020 ft | 445 kts | 252° |
| 2026-04-20 19:03 | 28.79135 | -139.18095 | 36021 ft | 445 kts | 252° |
| 2026-04-20 19:03 | 28.76760 | -139.24620 | 36024 ft | 445 kts | 251° |
| 2026-04-20 19:04 | 28.74379 | -139.31143 | 36025 ft | 446 kts | 251° |
| 2026-04-20 19:04 | 28.72008 | -139.37636 | 36025 ft | 446 kts | 251° |
| 2026-04-20 19:05 | 28.69628 | -139.44151 | 36025 ft | 445 kts | 251° |
| 2026-04-20 19:05 | 28.67229 | -139.50666 | 36026 ft | 445 kts | 251° |
| 2026-04-20 19:06 | 28.64837 | -139.57142 | 36026 ft | 446 kts | 251° |
| 2026-04-20 19:06 | 28.62428 | -139.63651 | 36026 ft | 445 kts | 251° |
| 2026-04-20 19:07 | 28.60024 | -139.70133 | 36024 ft | 444 kts | 251° |
| 2026-04-20 19:07 | 28.57613 | -139.76622 | 36024 ft | 444 kts | 251° |
| 2026-04-20 19:08 | 28.54059 | -139.86305 | 36024 ft | 444 kts | 251° |
| 2026-04-20 19:09 | 28.52057 | -139.91742 | 36025 ft | 445 kts | 251° |
| 2026-04-20 19:09 | 28.49665 | -139.98203 | 36025 ft | 445 kts | 251° |
| 2026-04-20 19:10 | 28.47258 | -140.04682 | 36025 ft | 444 kts | 251° |
| 2026-04-20 19:10 | 28.44851 | -140.11144 | 36026 ft | 444 kts | 251° |
| 2026-04-20 19:11 | 28.42452 | -140.17571 | 36026 ft | 444 kts | 251° |
| 2026-04-20 19:11 | 28.40035 | -140.24035 | 36026 ft | 444 kts | 251° |
| 2026-04-20 19:12 | 28.37615 | -140.30493 | 36027 ft | 444 kts | 250° |
| 2026-04-20 19:12 | 28.35192 | -140.36951 | 36027 ft | 444 kts | 250° |
| 2026-04-20 19:13 | 28.32781 | -140.43364 | 36027 ft | 444 kts | 250° |
| 2026-04-20 19:13 | 28.30352 | -140.49816 | 36026 ft | 444 kts | 250° |
| 2026-04-20 19:14 | 28.27915 | -140.56276 | 36027 ft | 445 kts | 250° |
| 2026-04-20 19:14 | 28.25473 | -140.62739 | 36027 ft | 445 kts | 250° |
| 2026-04-20 19:15 | 28.23046 | -140.69153 | 36028 ft | 445 kts | 250° |
| 2026-04-20 19:15 | 28.20602 | -140.75598 | 36040 ft | 445 kts | 250° |
| 2026-04-20 19:16 | 28.18159 | -140.82032 | 36043 ft | 444 kts | 250° |
| 2026-04-20 19:16 | 28.15712 | -140.88465 | 36044 ft | 444 kts | 250° |
| 2026-04-20 19:17 | 28.13258 | -140.94904 | 36044 ft | 445 kts | 250° |
| 2026-04-20 19:17 | 28.10811 | -141.01316 | 36044 ft | 445 kts | 250° |
| 2026-04-20 19:18 | 28.08350 | -141.07754 | 36044 ft | 445 kts | 250° |
| 2026-04-20 19:18 | 28.05887 | -141.14184 | 36045 ft | 444 kts | 250° |
| 2026-04-20 19:19 | 28.03438 | -141.20568 | 36045 ft | 444 kts | 250° |
| 2026-04-20 19:19 | 28.00973 | -141.26984 | 36045 ft | 444 kts | 250° |
| 2026-04-20 19:20 | 27.98505 | -141.33396 | 36046 ft | 442 kts | 249° |
| 2026-04-20 19:20 | 27.96049 | -141.39766 | 36046 ft | 440 kts | 249° |
| 2026-04-20 19:21 | 27.93613 | -141.46075 | 36047 ft | 440 kts | 249° |
| 2026-04-20 19:21 | 27.91157 | -141.52425 | 36047 ft | 441 kts | 249° |
| 2026-04-20 19:22 | 27.88691 | -141.58790 | 36047 ft | 441 kts | 249° |
| 2026-04-20 19:22 | 27.86222 | -141.65152 | 36048 ft | 441 kts | 249° |
| 2026-04-20 19:23 | 27.83765 | -141.71474 | 36048 ft | 441 kts | 249° |
| 2026-04-20 19:23 | 27.81291 | -141.77827 | 36051 ft | 441 kts | 249° |
| 2026-04-20 19:24 | 27.78819 | -141.84166 | 36052 ft | 442 kts | 249° |
| 2026-04-20 19:24 | 27.76335 | -141.90527 | 36052 ft | 442 kts | 249° |
| 2026-04-20 19:25 | 27.73867 | -141.96835 | 36052 ft | 442 kts | 249° |
| 2026-04-20 19:25 | 27.71378 | -142.03186 | 36052 ft | 442 kts | 249° |
| 2026-04-20 19:26 | 27.68890 | -142.09526 | 36055 ft | 442 kts | 249° |
| 2026-04-20 19:26 | 27.66397 | -142.15868 | 36057 ft | 441 kts | 249° |
| 2026-04-20 19:27 | 27.63910 | -142.22182 | 36057 ft | 440 kts | 249° |
| 2026-04-20 19:27 | 27.61421 | -142.28493 | 36057 ft | 441 kts | 249° |
| 2026-04-20 19:28 | 27.58943 | -142.34767 | 36057 ft | 441 kts | 249° |
| 2026-04-20 19:28 | 27.56444 | -142.41083 | 36057 ft | 441 kts | 249° |
| 2026-04-20 19:29 | 27.53942 | -142.47397 | 36058 ft | 440 kts | 249° |
| 2026-04-20 19:29 | 27.51443 | -142.53692 | 36058 ft | 440 kts | 249° |
| 2026-04-20 19:30 | 27.48958 | -142.59942 | 36059 ft | 440 kts | 249° |
| 2026-04-20 19:30 | 27.46455 | -142.66229 | 36059 ft | 440 kts | 249° |
| 2026-04-20 19:31 | 27.43952 | -142.72505 | 36059 ft | 439 kts | 248° |
| 2026-04-20 19:31 | 27.41447 | -142.78778 | 36059 ft | 438 kts | 248° |
| 2026-04-20 19:32 | 27.38942 | -142.85038 | 36059 ft | 438 kts | 248° |
| 2026-04-20 19:32 | 27.36432 | -142.91302 | 36060 ft | 438 kts | 248° |
| 2026-04-20 19:33 | 27.33923 | -142.97554 | 36060 ft | 438 kts | 248° |
| 2026-04-20 19:33 | 27.31422 | -143.03776 | 36060 ft | 438 kts | 248° |
| 2026-04-20 19:34 | 27.28908 | -143.10021 | 36060 ft | 439 kts | 248° |
| 2026-04-20 19:34 | 27.26388 | -143.16271 | 36061 ft | 439 kts | 248° |
| 2026-04-20 19:35 | 27.23867 | -143.22513 | 36062 ft | 438 kts | 248° |
| 2026-04-20 19:35 | 27.21357 | -143.28720 | 36062 ft | 438 kts | 248° |
| 2026-04-20 19:36 | 27.18832 | -143.34953 | 36061 ft | 438 kts | 248° |
| 2026-04-20 19:36 | 27.16299 | -143.41197 | 36062 ft | 438 kts | 248° |
| 2026-04-20 19:37 | 27.13775 | -143.47410 | 36062 ft | 437 kts | 248° |
| 2026-04-20 19:37 | 27.11264 | -143.53580 | 36063 ft | 437 kts | 248° |
| 2026-04-20 19:38 | 27.08718 | -143.59826 | 36063 ft | 437 kts | 248° |
| 2026-04-20 19:38 | 27.06198 | -143.65999 | 36063 ft | 437 kts | 248° |
| 2026-04-20 19:39 | 27.03666 | -143.72192 | 36063 ft | 437 kts | 248° |
| 2026-04-20 19:39 | 27.01131 | -143.78386 | 36064 ft | 436 kts | 248° |
| 2026-04-20 19:40 | 26.98597 | -143.84564 | 36059 ft | 436 kts | 248° |
| 2026-04-20 19:40 | 26.96062 | -143.90737 | 36058 ft | 435 kts | 248° |
| 2026-04-20 19:41 | 26.93524 | -143.96908 | 36059 ft | 435 kts | 248° |
| 2026-04-20 19:41 | 26.90996 | -144.03047 | 36059 ft | 436 kts | 247° |
| 2026-04-20 19:42 | 26.88451 | -144.09213 | 36061 ft | 435 kts | 247° |
| 2026-04-20 19:42 | 26.85906 | -144.15374 | 36060 ft | 435 kts | 247° |
| 2026-04-20 19:43 | 26.83363 | -144.21519 | 36060 ft | 434 kts | 247° |
| 2026-04-20 19:43 | 26.80822 | -144.27652 | 36060 ft | 434 kts | 247° |
| 2026-04-20 19:44 | 26.78294 | -144.33744 | 36061 ft | 434 kts | 247° |
| 2026-04-20 19:44 | 26.75747 | -144.39873 | 36061 ft | 434 kts | 247° |
| 2026-04-20 19:45 | 26.73203 | -144.45984 | 36061 ft | 433 kts | 247° |
| 2026-04-20 19:45 | 26.70658 | -144.52089 | 36062 ft | 433 kts | 247° |
| 2026-04-20 19:46 | 26.68126 | -144.58153 | 36062 ft | 433 kts | 247° |
| 2026-04-20 19:46 | 26.65570 | -144.64269 | 36062 ft | 433 kts | 247° |
| 2026-04-20 19:47 | 26.63017 | -144.70366 | 36062 ft | 433 kts | 247° |
| 2026-04-20 19:47 | 26.60464 | -144.76453 | 36063 ft | 433 kts | 247° |
| 2026-04-20 19:48 | 26.57905 | -144.82549 | 36063 ft | 433 kts | 246° |
| 2026-04-20 19:48 | 26.55361 | -144.88598 | 36063 ft | 433 kts | 246° |
| 2026-04-20 19:49 | 26.52801 | -144.94678 | 36064 ft | 433 kts | 246° |
| 2026-04-20 19:49 | 26.50231 | -145.00770 | 36064 ft | 433 kts | 246° |
| 2026-04-20 19:50 | 26.47661 | -145.06855 | 36064 ft | 433 kts | 246° |
| 2026-04-20 19:50 | 26.45107 | -145.12894 | 36064 ft | 432 kts | 246° |
| 2026-04-20 19:51 | 26.42542 | -145.18950 | 36064 ft | 431 kts | 246° |
| 2026-04-20 19:51 | 26.39973 | -145.25007 | 36065 ft | 431 kts | 246° |
| 2026-04-20 19:52 | 26.37418 | -145.31021 | 36065 ft | 431 kts | 246° |
| 2026-04-20 19:52 | 26.34849 | -145.37060 | 36066 ft | 430 kts | 246° |
| 2026-04-20 19:53 | 26.32282 | -145.43086 | 36066 ft | 429 kts | 246° |
| 2026-04-20 19:53 | 26.29733 | -145.49060 | 36066 ft | 429 kts | 246° |
| 2026-04-20 19:54 | 26.27160 | -145.55084 | 36063 ft | 429 kts | 246° |
| 2026-04-20 19:54 | 26.24593 | -145.61085 | 36057 ft | 428 kts | 246° |
| 2026-04-20 19:55 | 26.22031 | -145.67064 | 36058 ft | 427 kts | 246° |
| 2026-04-20 19:55 | 26.19481 | -145.73008 | 36058 ft | 427 kts | 246° |
| 2026-04-20 19:56 | 26.17347 | -145.77976 | 36059 ft | 427 kts | 246° |
| 2026-04-20 19:56 | 26.14351 | -145.84949 | 36060 ft | 426 kts | 246° |
| 2026-04-20 19:57 | 26.11806 | -145.90904 | 36060 ft | 426 kts | 246° |
| 2026-04-20 19:57 | 26.09253 | -145.96815 | 36060 ft | 426 kts | 246° |
| 2026-04-20 19:58 | 26.06683 | -146.02748 | 36061 ft | 426 kts | 246° |
| 2026-04-20 19:58 | 26.04105 | -146.08693 | 36061 ft | 426 kts | 246° |
| 2026-04-20 19:59 | 26.01529 | -146.14627 | 36061 ft | 426 kts | 246° |
| 2026-04-20 19:59 | 25.98955 | -146.20563 | 36061 ft | 426 kts | 246° |
| 2026-04-20 20:00 | 25.96810 | -146.25489 | 36062 ft | 426 kts | 246° |
| 2026-04-20 20:00 | 25.93807 | -146.32375 | 36062 ft | 426 kts | 245° |
| 2026-04-20 20:01 | 25.91639 | -146.37341 | 36062 ft | 426 kts | 245° |
| 2026-04-20 20:01 | 25.89062 | -146.43232 | 36062 ft | 427 kts | 245° |
| 2026-04-20 20:02 | 25.86465 | -146.49161 | 36062 ft | 427 kts | 245° |
| 2026-04-20 20:02 | 25.83887 | -146.55100 | 36063 ft | 426 kts | 245° |
| 2026-04-20 20:03 | 25.81312 | -146.61038 | 36063 ft | 426 kts | 245° |
| 2026-04-20 20:03 | 25.78738 | -146.66940 | 36062 ft | 426 kts | 245° |
| 2026-04-20 20:04 | 25.76142 | -146.72872 | 36062 ft | 426 kts | 245° |
| 2026-04-20 20:04 | 25.73548 | -146.78787 | 36063 ft | 427 kts | 245° |
| 2026-04-20 20:05 | 25.70938 | -146.84728 | 36063 ft | 427 kts | 245° |
| 2026-04-20 20:05 | 25.68348 | -146.90614 | 36064 ft | 427 kts | 245° |
| 2026-04-20 20:06 | 25.65740 | -146.96531 | 36064 ft | 427 kts | 245° |
| 2026-04-20 20:06 | 25.63123 | -147.02463 | 36064 ft | 427 kts | 245° |
| 2026-04-20 20:07 | 25.60510 | -147.08377 | 36065 ft | 427 kts | 245° |
| 2026-04-20 20:07 | 25.57907 | -147.14259 | 36065 ft | 428 kts | 245° |
| 2026-04-20 20:08 | 25.55283 | -147.20182 | 36065 ft | 428 kts | 245° |
| 2026-04-20 20:08 | 25.52658 | -147.26100 | 36065 ft | 428 kts | 245° |
| 2026-04-20 20:09 | 25.50030 | -147.32015 | 36065 ft | 428 kts | 245° |
| 2026-04-20 20:09 | 25.47398 | -147.37931 | 36066 ft | 428 kts | 245° |
| 2026-04-20 20:10 | 25.44777 | -147.43815 | 36066 ft | 429 kts | 244° |
| 2026-04-20 20:10 | 25.42133 | -147.49743 | 36067 ft | 429 kts | 244° |
| 2026-04-20 20:11 | 25.39489 | -147.55663 | 36066 ft | 429 kts | 244° |
| 2026-04-20 20:11 | 25.36848 | -147.61567 | 36067 ft | 428 kts | 244° |
| 2026-04-20 20:12 | 25.34206 | -147.67467 | 36070 ft | 427 kts | 244° |
| 2026-04-20 20:12 | 25.31579 | -147.73325 | 36070 ft | 428 kts | 244° |
| 2026-04-20 20:13 | 25.27609 | -147.82166 | 36071 ft | 428 kts | 244° |
| 2026-04-20 20:13 | 25.24961 | -147.88052 | 36071 ft | 428 kts | 244° |
| 2026-04-20 20:14 | 25.22323 | -147.93907 | 36071 ft | 428 kts | 244° |
| 2026-04-20 20:14 | 25.19669 | -147.99791 | 36072 ft | 428 kts | 244° |
| 2026-04-20 20:15 | 25.17007 | -148.05685 | 36072 ft | 429 kts | 244° |
| 2026-04-20 20:15 | 25.14337 | -148.11589 | 36072 ft | 430 kts | 244° |
| 2026-04-20 20:16 | 25.11664 | -148.17490 | 36072 ft | 430 kts | 244° |
| 2026-04-20 20:16 | 25.09000 | -148.23365 | 36073 ft | 430 kts | 244° |
| 2026-04-20 20:17 | 25.06321 | -148.29266 | 36074 ft | 430 kts | 244° |
| 2026-04-20 20:17 | 25.03640 | -148.35163 | 36072 ft | 430 kts | 244° |
| 2026-04-20 20:18 | 25.00959 | -148.41052 | 36073 ft | 430 kts | 244° |
| 2026-04-20 20:18 | 24.98292 | -148.46902 | 36073 ft | 430 kts | 244° |
| 2026-04-20 20:19 | 24.95597 | -148.52808 | 36073 ft | 430 kts | 244° |
| 2026-04-20 20:19 | 24.92907 | -148.58694 | 36074 ft | 430 kts | 244° |
| 2026-04-20 20:20 | 24.90215 | -148.64578 | 36074 ft | 430 kts | 244° |
| 2026-04-20 20:20 | 24.87521 | -148.70457 | 36075 ft | 430 kts | 244° |
| 2026-04-20 20:21 | 24.84840 | -148.76300 | 36074 ft | 430 kts | 244° |
| 2026-04-20 20:21 | 24.82137 | -148.82185 | 36075 ft | 430 kts | 244° |
| 2026-04-20 20:22 | 24.79435 | -148.88060 | 36075 ft | 430 kts | 244° |
| 2026-04-20 20:22 | 24.76742 | -148.93908 | 36075 ft | 430 kts | 244° |
| 2026-04-20 20:23 | 24.74031 | -148.99787 | 36075 ft | 430 kts | 244° |
| 2026-04-20 20:23 | 24.71324 | -149.05649 | 36075 ft | 430 kts | 244° |
| 2026-04-20 20:24 | 24.68616 | -149.11507 | 36075 ft | 429 kts | 243° |
| 2026-04-20 20:24 | 24.65908 | -149.17356 | 36075 ft | 429 kts | 243° |
| 2026-04-20 20:25 | 24.63212 | -149.23172 | 36075 ft | 429 kts | 243° |
| 2026-04-20 20:25 | 24.60498 | -149.29022 | 36076 ft | 429 kts | 243° |
| 2026-04-20 20:26 | 24.57786 | -149.34858 | 36076 ft | 429 kts | 243° |
| 2026-04-20 20:26 | 24.55074 | -149.40687 | 36076 ft | 428 kts | 243° |
| 2026-04-20 20:27 | 24.52359 | -149.46514 | 36076 ft | 427 kts | 243° |
| 2026-04-20 20:27 | 24.49667 | -149.52285 | 36077 ft | 427 kts | 243° |
| 2026-04-20 20:28 | 24.46963 | -149.58076 | 36077 ft | 426 kts | 243° |
| 2026-04-20 20:28 | 24.44254 | -149.63870 | 36077 ft | 426 kts | 243° |
| 2026-04-20 20:29 | 24.41546 | -149.69654 | 36077 ft | 425 kts | 243° |
| 2026-04-20 20:29 | 24.38841 | -149.75424 | 36079 ft | 425 kts | 243° |
| 2026-04-20 20:30 | 24.36154 | -149.81149 | 36077 ft | 424 kts | 243° |
| 2026-04-20 20:30 | 24.33451 | -149.86903 | 36077 ft | 424 kts | 243° |
| 2026-04-20 20:31 | 24.30739 | -149.92666 | 36077 ft | 424 kts | 243° |
| 2026-04-20 20:31 | 24.28028 | -149.98422 | 36078 ft | 424 kts | 243° |
| 2026-04-20 20:32 | 24.25323 | -150.04157 | 36078 ft | 423 kts | 243° |
| 2026-04-20 20:32 | 24.22627 | -150.09866 | 36078 ft | 423 kts | 243° |
| 2026-04-20 20:33 | 24.19916 | -150.15601 | 36078 ft | 423 kts | 243° |
| 2026-04-20 20:33 | 24.17205 | -150.21328 | 36078 ft | 424 kts | 243° |
| 2026-04-20 20:34 | 24.14486 | -150.27065 | 36079 ft | 424 kts | 243° |
| 2026-04-20 20:34 | 24.11776 | -150.32775 | 36079 ft | 425 kts | 243° |
| 2026-04-20 20:35 | 24.09052 | -150.38511 | 36079 ft | 424 kts | 243° |
| 2026-04-20 20:35 | 24.06328 | -150.44238 | 36079 ft | 425 kts | 243° |
| 2026-04-20 20:36 | 24.03593 | -150.49980 | 36079 ft | 426 kts | 243° |
| 2026-04-20 20:36 | 24.00847 | -150.55739 | 36080 ft | 426 kts | 243° |
| 2026-04-20 20:37 | 23.98108 | -150.61477 | 36080 ft | 423 kts | 243° |
| 2026-04-20 20:37 | 23.95387 | -150.67170 | 36080 ft | 423 kts | 243° |
| 2026-04-20 20:38 | 23.92654 | -150.72881 | 36080 ft | 424 kts | 243° |
| 2026-04-20 20:38 | 23.89929 | -150.78570 | 36080 ft | 425 kts | 243° |
| 2026-04-20 20:39 | 23.87186 | -150.84287 | 36080 ft | 425 kts | 243° |
| 2026-04-20 20:39 | 23.84444 | -150.89998 | 36080 ft | 425 kts | 243° |
| 2026-04-20 20:40 | 23.81692 | -150.95722 | 36081 ft | 426 kts | 242° |
| 2026-04-20 20:40 | 23.78938 | -151.01442 | 36081 ft | 426 kts | 242° |
| 2026-04-20 20:41 | 23.76180 | -151.07165 | 36081 ft | 425 kts | 242° |
| 2026-04-20 20:41 | 23.73413 | -151.12898 | 36081 ft | 426 kts | 242° |
| 2026-04-20 20:42 | 23.70658 | -151.18600 | 36081 ft | 427 kts | 242° |
| 2026-04-20 20:42 | 23.67888 | -151.24328 | 36082 ft | 426 kts | 242° |
| 2026-04-20 20:43 | 23.65115 | -151.30054 | 36082 ft | 426 kts | 242° |
| 2026-04-20 20:43 | 23.62337 | -151.35785 | 36083 ft | 427 kts | 242° |
| 2026-04-20 20:44 | 23.59573 | -151.41480 | 36083 ft | 428 kts | 242° |
| 2026-04-20 20:44 | 23.56783 | -151.47221 | 36083 ft | 428 kts | 242° |
| 2026-04-20 20:45 | 23.54468 | -151.51980 | 36083 ft | 427 kts | 242° |
| 2026-04-20 20:45 | 23.51676 | -151.57713 | 36083 ft | 427 kts | 242° |
| 2026-04-20 20:46 | 23.48885 | -151.63437 | 36083 ft | 427 kts | 242° |
| 2026-04-20 20:46 | 23.46105 | -151.69132 | 36083 ft | 427 kts | 242° |
| 2026-04-20 20:47 | 23.43332 | -151.74806 | 36084 ft | 421 kts | 242° |
| 2026-04-20 20:47 | 23.40594 | -151.80401 | 36084 ft | 416 kts | 242° |
| 2026-04-20 20:48 | 23.37875 | -151.85953 | 36084 ft | 415 kts | 242° |
| 2026-04-20 20:48 | 23.35157 | -151.91495 | 36084 ft | 415 kts | 242° |
| 2026-04-20 20:49 | 23.32431 | -151.97048 | 36084 ft | 416 kts | 242° |
| 2026-04-20 20:49 | 23.29707 | -152.02591 | 36084 ft | 416 kts | 242° |
| 2026-04-20 20:50 | 23.26968 | -152.08157 | 36084 ft | 417 kts | 242° |
| 2026-04-20 20:50 | 23.24238 | -152.13699 | 36085 ft | 417 kts | 242° |
| 2026-04-20 20:51 | 23.21492 | -152.19269 | 36084 ft | 417 kts | 242° |
| 2026-04-20 20:51 | 23.18746 | -152.24832 | 36084 ft | 417 kts | 242° |
| 2026-04-20 20:52 | 23.16031 | -152.30358 | 36085 ft | 417 kts | 242° |
| 2026-04-20 20:52 | 23.13281 | -152.35924 | 36085 ft | 418 kts | 242° |
| 2026-04-20 20:53 | 23.10522 | -152.41484 | 36085 ft | 418 kts | 242° |
| 2026-04-20 20:53 | 23.07762 | -152.47038 | 36085 ft | 417 kts | 242° |
| 2026-04-20 20:54 | 23.05006 | -152.52579 | 36086 ft | 417 kts | 242° |
| 2026-04-20 20:54 | 23.02247 | -152.58127 | 36085 ft | 417 kts | 242° |
| 2026-04-20 20:55 | 22.99487 | -152.63627 | 36085 ft | 417 kts | 242° |
| 2026-04-20 20:55 | 22.96703 | -152.69158 | 36086 ft | 418 kts | 242° |
| 2026-04-20 20:56 | 22.93914 | -152.74693 | 36086 ft | 418 kts | 242° |
| 2026-04-20 20:56 | 22.91123 | -152.80227 | 36086 ft | 418 kts | 242° |
| 2026-04-20 20:57 | 22.88328 | -152.85764 | 36086 ft | 418 kts | 242° |
| 2026-04-20 20:57 | 22.85531 | -152.91308 | 36086 ft | 419 kts | 242° |
| 2026-04-20 20:58 | 22.82755 | -152.96859 | 36086 ft | 419 kts | 242° |
| 2026-04-20 20:58 | 22.79979 | -153.02375 | 36087 ft | 419 kts | 242° |
| 2026-04-20 20:59 | 22.77179 | -153.07923 | 36086 ft | 419 kts | 242° |
| 2026-04-20 20:59 | 22.74377 | -153.13461 | 36087 ft | 419 kts | 242° |
| 2026-04-20 21:00 | 22.71590 | -153.18965 | 36087 ft | 419 kts | 242° |
| 2026-04-20 21:00 | 22.68786 | -153.24496 | 36087 ft | 419 kts | 242° |
| 2026-04-20 21:01 | 22.65977 | -153.30026 | 36088 ft | 419 kts | 242° |
| 2026-04-20 21:01 | 22.63170 | -153.35552 | 36087 ft | 418 kts | 242° |
| 2026-04-20 21:02 | 22.60359 | -153.41079 | 36087 ft | 418 kts | 242° |
| 2026-04-20 21:02 | 22.57561 | -153.46572 | 36087 ft | 418 kts | 242° |
| 2026-04-20 21:03 | 22.54752 | -153.52082 | 36087 ft | 418 kts | 242° |
| 2026-04-20 21:03 | 22.51941 | -153.57594 | 36078 ft | 418 kts | 242° |
| 2026-04-20 21:04 | 22.49144 | -153.63103 | 36078 ft | 417 kts | 242° |
| 2026-04-20 21:04 | 22.46345 | -153.68573 | 36076 ft | 418 kts | 242° |
| 2026-04-20 21:05 | 22.43528 | -153.74066 | 36078 ft | 417 kts | 242° |
| 2026-04-20 21:05 | 22.40710 | -153.79552 | 36077 ft | 417 kts | 242° |
| 2026-04-20 21:06 | 22.37900 | -153.85034 | 36075 ft | 416 kts | 243° |
| 2026-04-20 21:06 | 22.36213 | -153.90940 | 36080 ft | 417 kts | 262° |
| 2026-04-20 21:07 | 22.36173 | -153.97229 | 36077 ft | 420 kts | 269° |
| 2026-04-20 21:07 | 22.36498 | -154.03552 | 36078 ft | 422 kts | 269° |
| 2026-04-20 21:08 | 22.36727 | -154.09890 | 36079 ft | 422 kts | 268° |
| 2026-04-20 21:08 | 22.36882 | -154.16192 | 36079 ft | 422 kts | 268° |
| 2026-04-20 21:09 | 22.37014 | -154.22531 | 36079 ft | 422 kts | 268° |
| 2026-04-20 21:09 | 22.37155 | -154.28871 | 36079 ft | 422 kts | 268° |
| 2026-04-20 21:10 | 22.37297 | -154.35221 | 36080 ft | 423 kts | 268° |
| 2026-04-20 21:10 | 22.37425 | -154.41570 | 36080 ft | 423 kts | 268° |
| 2026-04-20 21:11 | 22.37546 | -154.47941 | 36081 ft | 424 kts | 268° |
| 2026-04-20 21:11 | 22.37663 | -154.54280 | 36079 ft | 424 kts | 268° |
| 2026-04-20 21:12 | 22.37777 | -154.60664 | 36080 ft | 424 kts | 268° |
| 2026-04-20 21:12 | 22.37888 | -154.67045 | 36080 ft | 425 kts | 268° |
| 2026-04-20 21:13 | 22.37997 | -154.73438 | 36079 ft | 425 kts | 268° |
| 2026-04-20 21:13 | 22.38102 | -154.79798 | 36080 ft | 425 kts | 268° |
| 2026-04-20 21:14 | 22.38206 | -154.86197 | 36080 ft | 426 kts | 268° |
| 2026-04-20 21:14 | 22.38307 | -154.92579 | 36079 ft | 427 kts | 268° |
| 2026-04-20 21:15 | 22.38406 | -154.98991 | 36079 ft | 427 kts | 268° |
| 2026-04-20 21:15 | 22.38503 | -155.05405 | 36080 ft | 426 kts | 268° |
| 2026-04-20 21:16 | 22.38596 | -155.11810 | 36080 ft | 426 kts | 268° |
| 2026-04-20 21:16 | 22.38688 | -155.18223 | 36080 ft | 427 kts | 268° |
| 2026-04-20 21:17 | 22.38132 | -155.24558 | 36081 ft | 424 kts | 254° |
| 2026-04-20 21:17 | 22.35987 | -155.30499 | 36079 ft | 424 kts | 246° |
| 2026-04-20 21:18 | 22.33490 | -155.36271 | 36080 ft | 423 kts | 244° |
| 2026-04-20 21:18 | 22.30948 | -155.41938 | 36080 ft | 422 kts | 244° |
| 2026-04-20 21:19 | 22.28382 | -155.47654 | 36080 ft | 422 kts | 244° |
| 2026-04-20 21:20 | 22.24545 | -155.56202 | 36082 ft | 421 kts | 244° |
| 2026-04-20 21:20 | 22.22010 | -155.61846 | 36095 ft | 415 kts | 244° |
| 2026-04-20 21:21 | 22.19540 | -155.67341 | 35964 ft | 399 kts | 244° |
| 2026-04-20 21:21 | 22.18336 | -155.70016 | 35708 ft | 396 kts | 244° |
| 2026-04-20 21:21 | 22.17128 | -155.72698 | 35201 ft | 399 kts | 244° |
| 2026-04-20 21:21 | 22.15903 | -155.75418 | 34464 ft | 407 kts | 244° |
| 2026-04-20 21:22 | 22.14655 | -155.78189 | 33801 ft | 414 kts | 244° |
| 2026-04-20 21:22 | 22.13404 | -155.80962 | 33281 ft | 416 kts | 244° |
| 2026-04-20 21:22 | 22.12134 | -155.83776 | 32788 ft | 418 kts | 244° |
| 2026-04-20 21:22 | 22.10856 | -155.86608 | 32156 ft | 422 kts | 244° |
| 2026-04-20 21:23 | 22.09567 | -155.89461 | 31679 ft | 424 kts | 244° |
| 2026-04-20 21:23 | 22.08273 | -155.92326 | 31532 ft | 426 kts | 245° |
| 2026-04-20 21:23 | 22.06967 | -155.95212 | 31409 ft | 428 kts | 244° |
| 2026-04-20 21:24 | 22.04348 | -156.00999 | 31242 ft | 430 kts | 245° |
| 2026-04-20 21:24 | 22.01722 | -156.06795 | 31135 ft | 430 kts | 245° |
| 2026-04-20 21:25 | 21.99107 | -156.12560 | 31082 ft | 431 kts | 244° |
| 2026-04-20 21:25 | 21.96470 | -156.18366 | 31082 ft | 431 kts | 244° |
| 2026-04-20 21:26 | 21.93835 | -156.24163 | 31082 ft | 431 kts | 244° |
| 2026-04-20 21:26 | 21.91196 | -156.29960 | 31082 ft | 430 kts | 245° |
| 2026-04-20 21:27 | 21.88559 | -156.35747 | 31082 ft | 430 kts | 244° |
| 2026-04-20 21:27 | 21.85923 | -156.41527 | 31082 ft | 430 kts | 244° |
| 2026-04-20 21:28 | 21.83286 | -156.47300 | 31094 ft | 429 kts | 245° |
| 2026-04-20 21:28 | 21.80647 | -156.53072 | 31096 ft | 429 kts | 245° |
| 2026-04-20 21:29 | 21.78038 | -156.58771 | 31061 ft | 418 kts | 245° |
| 2026-04-20 21:29 | 21.76769 | -156.61542 | 30758 ft | 409 kts | 245° |
| 2026-04-20 21:29 | 21.75511 | -156.64286 | 30141 ft | 409 kts | 245° |
| 2026-04-20 21:29 | 21.74257 | -156.67022 | 29604 ft | 406 kts | 245° |
| 2026-04-20 21:30 | 21.73012 | -156.69735 | 29061 ft | 404 kts | 245° |
| 2026-04-20 21:30 | 21.71770 | -156.72441 | 28521 ft | 402 kts | 245° |
| 2026-04-20 21:30 | 21.70535 | -156.75130 | 27986 ft | 400 kts | 245° |
| 2026-04-20 21:30 | 21.69306 | -156.77803 | 27456 ft | 398 kts | 245° |
| 2026-04-20 21:31 | 21.68494 | -156.79571 | 27109 ft | 396 kts | 245° |
| 2026-04-20 21:31 | 21.67275 | -156.82220 | 26590 ft | 394 kts | 245° |
| 2026-04-20 21:31 | 21.66061 | -156.84859 | 26071 ft | 392 kts | 245° |
| 2026-04-20 21:31 | 21.64854 | -156.87480 | 25554 ft | 390 kts | 245° |
| 2026-04-20 21:32 | 21.63651 | -156.90092 | 25035 ft | 389 kts | 245° |
| 2026-04-20 21:32 | 21.62455 | -156.92687 | 24520 ft | 387 kts | 245° |
| 2026-04-20 21:32 | 21.61261 | -156.95276 | 24007 ft | 385 kts | 245° |
| 2026-04-20 21:32 | 21.60078 | -156.97841 | 23504 ft | 383 kts | 245° |
| 2026-04-20 21:33 | 21.58895 | -157.00404 | 23003 ft | 381 kts | 245° |
| 2026-04-20 21:33 | 21.57722 | -157.02945 | 22503 ft | 379 kts | 245° |
| 2026-04-20 21:33 | 21.56553 | -157.05476 | 22002 ft | 377 kts | 245° |
| 2026-04-20 21:33 | 21.55391 | -157.07990 | 21505 ft | 375 kts | 245° |
| 2026-04-20 21:34 | 21.54232 | -157.10494 | 21009 ft | 373 kts | 245° |
| 2026-04-20 21:34 | 21.53081 | -157.12980 | 20507 ft | 371 kts | 245° |
| 2026-04-20 21:34 | 21.51937 | -157.15455 | 20014 ft | 369 kts | 245° |
| 2026-04-20 21:34 | 21.50810 | -157.17889 | 19530 ft | 367 kts | 245° |
| 2026-04-20 21:35 | 21.49677 | -157.20335 | 19044 ft | 365 kts | 244° |
| 2026-04-20 21:35 | 21.48548 | -157.22771 | 18561 ft | 363 kts | 244° |
| 2026-04-20 21:35 | 21.47426 | -157.25192 | 18088 ft | 361 kts | 244° |
| 2026-04-20 21:35 | 21.46306 | -157.27605 | 17618 ft | 359 kts | 244° |
| 2026-04-20 21:36 | 21.45198 | -157.29994 | 17149 ft | 357 kts | 244° |
| 2026-04-20 21:36 | 21.44091 | -157.32377 | 16676 ft | 355 kts | 244° |
| 2026-04-20 21:36 | 21.42991 | -157.34747 | 16202 ft | 354 kts | 244° |
| 2026-04-20 21:36 | 21.41895 | -157.37105 | 15662 ft | 354 kts | 244° |
| 2026-04-20 21:37 | 21.40797 | -157.39472 | 15166 ft | 353 kts | 244° |
| 2026-04-20 21:37 | 21.39721 | -157.41837 | 14677 ft | 351 kts | 244° |
| 2026-04-20 21:37 | 21.38687 | -157.44097 | 14210 ft | 350 kts | 244° |
| 2026-04-20 21:37 | 21.37666 | -157.46312 | 13746 ft | 348 kts | 244° |
| 2026-04-20 21:38 | 21.36591 | -157.48631 | 13253 ft | 347 kts | 244° |
| 2026-04-20 21:38 | 21.35513 | -157.50949 | 12757 ft | 346 kts | 243° |
| 2026-04-20 21:38 | 21.34453 | -157.53225 | 12274 ft | 344 kts | 243° |
| 2026-04-20 21:38 | 21.33386 | -157.55516 | 11786 ft | 343 kts | 243° |
| 2026-04-20 21:39 | 21.32322 | -157.57805 | 11302 ft | 341 kts | 244° |
| 2026-04-20 21:39 | 21.31417 | -157.60120 | 10999 ft | 333 kts | 251° |
| 2026-04-20 21:39 | 21.30863 | -157.62506 | 10555 ft | 328 kts | 257° |
| 2026-04-20 21:39 | 21.30388 | -157.64889 | 10198 ft | 322 kts | 257° |
| 2026-04-20 21:40 | 21.29953 | -157.67191 | 10112 ft | 308 kts | 258° |
| 2026-04-20 21:40 | 21.29545 | -157.69398 | 10033 ft | 295 kts | 258° |
| 2026-04-20 21:40 | 21.29156 | -157.71480 | 9925 ft | 284 kts | 258° |
| 2026-04-20 21:40 | 21.28767 | -157.73541 | 9595 ft | 282 kts | 258° |
| 2026-04-20 21:41 | 21.28371 | -157.75631 | 9200 ft | 282 kts | 258° |
| 2026-04-20 21:41 | 21.27984 | -157.77664 | 8849 ft | 281 kts | 258° |
| 2026-04-20 21:41 | 21.27593 | -157.79715 | 8498 ft | 280 kts | 258° |
| 2026-04-20 21:41 | 21.27201 | -157.81763 | 8148 ft | 279 kts | 258° |
| 2026-04-20 21:42 | 21.26812 | -157.83799 | 7806 ft | 278 kts | 258° |
| 2026-04-20 21:42 | 21.26425 | -157.85824 | 7462 ft | 277 kts | 258° |
| 2026-04-20 21:42 | 21.26038 | -157.87849 | 7127 ft | 277 kts | 258° |
| 2026-04-20 21:42 | 21.25650 | -157.89875 | 6771 ft | 277 kts | 258° |
| 2026-04-20 21:43 | 21.25263 | -157.91889 | 6435 ft | 276 kts | 258° |
| 2026-04-20 21:43 | 21.24880 | -157.93892 | 6180 ft | 267 kts | 258° |
| 2026-04-20 21:43 | 21.24527 | -157.95722 | 6100 ft | 236 kts | 258° |
| 2026-04-20 21:43 | 21.24207 | -157.97401 | 6046 ft | 232 kts | 258° |
| 2026-04-20 21:44 | 21.23902 | -157.99107 | 6005 ft | 233 kts | 261° |
| 2026-04-20 21:44 | 21.23768 | -158.00849 | 5890 ft | 237 kts | 267° |
| 2026-04-20 21:44 | 21.23742 | -158.02646 | 5476 ft | 244 kts | 269° |
| 2026-04-20 21:44 | 21.23761 | -158.04480 | 5129 ft | 246 kts | 270° |
| 2026-04-20 21:45 | 21.23891 | -158.06293 | 4851 ft | 241 kts | 277° |
| 2026-04-20 21:45 | 21.24263 | -158.08003 | 4525 ft | 238 kts | 289° |
| 2026-04-20 21:45 | 21.25087 | -158.09530 | 4179 ft | 236 kts | 309° |
| 2026-04-20 21:45 | 21.26376 | -158.10584 | 3863 ft | 233 kts | 331° |
| 2026-04-20 21:46 | 21.27906 | -158.11048 | 3553 ft | 228 kts | 354° |
| 2026-04-20 21:46 | 21.29460 | -158.10858 | 3255 ft | 224 kts | 16° |
| 2026-04-20 21:46 | 21.30795 | -158.10018 | 2973 ft | 222 kts | 42° |
| 2026-04-20 21:46 | 21.31716 | -158.08743 | 2742 ft | 213 kts | 58° |
| 2026-04-20 21:47 | 21.32349 | -158.07320 | 2424 ft | 210 kts | 70° |
| 2026-04-20 21:47 | 21.32649 | -158.05837 | 2266 ft | 194 kts | 84° |
| 2026-04-20 21:47 | 21.32687 | -158.04486 | 2208 ft | 173 kts | 90° |
| 2026-04-20 21:47 | 21.32600 | -158.03208 | 2093 ft | 170 kts | 97° |
| 2026-04-20 21:48 | 21.32537 | -158.01978 | 1748 ft | 162 kts | 91° |
| 2026-04-20 21:48 | 21.32534 | -158.00805 | 1496 ft | 148 kts | 92° |
| 2026-04-20 21:48 | 21.32533 | -157.99758 | 1242 ft | 140 kts | 92° |
| 2026-04-20 21:48 | 21.32549 | -157.98732 | 949 ft | 135 kts | 93° |
| 2026-04-20 21:49 | 21.32531 | -157.97688 | 723 ft | 149 kts | 94° |
| 2026-04-20 21:49 | 21.32524 | -157.96596 | 542 ft | 142 kts | 93° |
| 2026-04-20 21:49 | 21.32525 | -157.95563 | 269 ft | 138 kts | 94° |
| 2026-04-20 21:49 | 21.32526 | -157.94535 | 88 ft | 138 kts | 93° |
| 2026-04-20 21:50 | 21.32526 | -157.93562 | 28 ft | 120 kts | 91° |
| 2026-04-20 21:50 | 21.32525 | -157.92799 | 27 ft | 84 kts | 90° |
| 2026-04-20 21:50 | 21.32524 | -157.92398 | 27 ft | 23 kts | 90° |
| 2026-04-20 21:50 | 21.32556 | -157.92264 | 27 ft | 17 kts | 61° |
| 2026-04-20 21:51 | 21.32603 | -157.92175 | 27 ft | 12 kts | 59° |
| 2026-04-20 21:51 | 21.32645 | -157.92097 | 27 ft | 12 kts | 60° |
| 2026-04-20 21:51 | 21.32685 | -157.92024 | 27 ft | 11 kts | 60° |
| 2026-04-20 21:51 | 21.32723 | -157.91956 | 27 ft | 10 kts | 59° |
| 2026-04-20 21:52 | 21.32758 | -157.91893 | 27 ft | 10 kts | 59° |
| 2026-04-20 21:52 | 21.32773 | -157.91825 | 27 ft | 9 kts | 90° |
| 2026-04-20 21:52 | 21.32773 | -157.91759 | 27 ft | 9 kts | 90° |
| 2026-04-20 21:52 | 21.32773 | -157.91696 | 27 ft | 8 kts | 90° |
| 2026-04-20 21:53 | 21.32800 | -157.91650 | 27 ft | 8 kts | 19° |
| 2026-04-20 21:53 | 21.32851 | -157.91645 | 27 ft | 7 kts | 0° |
| 2026-04-20 21:53 | 21.32876 | -157.91645 | 27 ft | 1 kts | 0° |
| 2026-04-20 21:53 | 21.32878 | -157.91645 | 27 ft | 0 kts | 0° |